createdAt,value
2022-12-31T00:01:32.828Z,2.77
2022-12-31T00:04:00.812Z,2.81
2022-12-31T00:06:31.436Z,2.84
2022-12-31T00:09:01.515Z,2.84
2022-12-31T00:11:30.952Z,2.76
2022-12-31T00:13:59.437Z,2.70
2022-12-31T00:16:30.044Z,2.68
2022-12-31T00:19:00.151Z,2.67
2022-12-31T00:21:31.453Z,2.63
2022-12-31T00:24:00.053Z,2.59
2022-12-31T00:26:31.252Z,2.58
2022-12-31T00:29:00.408Z,2.60
2022-12-31T00:31:34.328Z,2.68
2022-12-31T00:34:02.944Z,2.73
2022-12-31T00:36:34.994Z,2.82
2022-12-31T00:39:04.799Z,2.87
2022-12-31T00:41:32.872Z,2.92
2022-12-31T00:44:01.179Z,2.95
2022-12-31T00:46:29.398Z,2.96
2022-12-31T00:48:57.676Z,2.99
2022-12-31T00:51:27.884Z,3.06
2022-12-31T00:53:56.998Z,3.14
2022-12-31T00:56:27.547Z,3.24
2022-12-31T00:58:55.921Z,3.32
2022-12-31T01:01:27.232Z,3.39
2022-12-31T01:04:07.344Z,3.45
2022-12-31T01:06:35.871Z,3.49
2022-12-31T01:09:05.191Z,3.55
2022-12-31T01:11:33.646Z,3.62
2022-12-31T01:14:13.965Z,3.69
2022-12-31T01:16:45.923Z,3.74
2022-12-31T01:19:16.938Z,3.77
2022-12-31T01:21:46.003Z,3.77
2022-12-31T01:24:14.205Z,3.73
2022-12-31T01:26:42.848Z,3.71
2022-12-31T01:29:13.570Z,3.69
2022-12-31T01:31:41.928Z,3.68
2022-12-31T01:34:10.239Z,3.70
2022-12-31T01:37:07.923Z,3.69
2022-12-31T01:39:35.886Z,3.60
2022-12-31T01:42:03.950Z,3.50
2022-12-31T01:44:31.862Z,3.37
2022-12-31T01:47:04.243Z,3.28
2022-12-31T01:49:41.829Z,3.24
2022-12-31T01:52:22.806Z,3.22
2022-12-31T01:54:58.260Z,3.16
2022-12-31T01:57:27.501Z,3.05
2022-12-31T01:59:56.900Z,3.02
2022-12-31T02:02:25.104Z,3.12
2022-12-31T02:04:55.891Z,3.13
2022-12-31T02:07:23.929Z,3.12
2022-12-31T02:09:54.265Z,3.07
2022-12-31T02:12:23.061Z,3.07
2022-12-31T02:14:53.880Z,3.04
2022-12-31T02:17:51.935Z,2.98
2022-12-31T02:20:51.601Z,3.02
2022-12-31T02:23:22.782Z,3.06
2022-12-31T02:26:15.536Z,3.11
2022-12-31T02:28:52.533Z,3.23
2022-12-31T02:31:32.821Z,3.32
2022-12-31T02:34:13.875Z,3.34
2022-12-31T02:36:47.384Z,3.22
2022-12-31T02:39:15.959Z,3.13
2022-12-31T02:41:51.450Z,3.11
2022-12-31T02:44:30.426Z,3.13
2022-12-31T02:47:21.121Z,3.20
2022-12-31T02:50:23.171Z,3.28
2022-12-31T02:53:09.730Z,3.34
2022-12-31T02:55:53.307Z,3.33
2022-12-31T02:58:52.627Z,3.26
2022-12-31T03:01:45.719Z,3.29
2022-12-31T03:04:33.357Z,3.35
2022-12-31T03:07:08.854Z,3.43
2022-12-31T03:09:37.607Z,3.48
2022-12-31T03:12:26.578Z,3.49
2022-12-31T03:14:54.548Z,3.47
2022-12-31T03:17:22.991Z,3.45
2022-12-31T03:21:05.612Z,3.44
2022-12-31T03:23:38.137Z,3.41
2022-12-31T03:26:12.522Z,3.40
2022-12-31T03:28:43.551Z,3.41
2022-12-31T03:31:11.640Z,3.30
2022-12-31T03:33:41.895Z,3.17
2022-12-31T03:36:12.856Z,3.05
2022-12-31T03:38:41.129Z,2.97
2022-12-31T03:41:11.445Z,2.97
2022-12-31T03:43:39.450Z,3.00
2022-12-31T03:46:07.425Z,3.04
2022-12-31T03:48:35.361Z,3.01
2022-12-31T03:51:06.150Z,3.10
2022-12-31T03:53:35.771Z,3.19
2022-12-31T03:56:04.065Z,3.32
2022-12-31T03:58:32.045Z,3.39
2022-12-31T04:01:00.035Z,3.43
2022-12-31T04:03:28.826Z,3.52
2022-12-31T04:05:57.127Z,3.65
2022-12-31T04:08:25.519Z,3.76
2022-12-31T04:10:53.573Z,3.87
2022-12-31T04:13:21.747Z,3.96
2022-12-31T04:15:52.054Z,4.02
2022-12-31T04:18:20.025Z,4.06
2022-12-31T04:20:47.978Z,4.09
2022-12-31T04:23:17.092Z,4.12
2022-12-31T04:25:45.052Z,4.16
2022-12-31T04:28:15.136Z,4.22
2022-12-31T04:30:44.080Z,4.27
2022-12-31T04:33:12.092Z,4.31
2022-12-31T04:35:40.063Z,4.31
2022-12-31T04:38:08.017Z,4.32
2022-12-31T04:40:55.934Z,4.30
2022-12-31T04:43:24.760Z,4.24
2022-12-31T04:45:52.763Z,4.18
2022-12-31T04:52:51.016Z,4.47
2022-12-31T04:55:18.983Z,4.54
2022-12-31T04:57:46.919Z,4.61
2022-12-31T05:00:15.207Z,4.68
2022-12-31T05:02:43.348Z,4.74
2022-12-31T05:05:11.450Z,4.79
2022-12-31T05:07:39.448Z,4.82
2022-12-31T05:10:07.979Z,4.83
2022-12-31T05:12:35.982Z,4.84
2022-12-31T05:15:04.263Z,4.85
2022-12-31T05:17:32.214Z,4.86
2022-12-31T05:20:00.303Z,4.92
2022-12-31T05:22:33.087Z,4.99
2022-12-31T05:25:01.466Z,5.05
2022-12-31T05:27:31.420Z,5.03
2022-12-31T05:30:00.052Z,4.98
2022-12-31T05:32:28.251Z,5.01
2022-12-31T05:34:58.152Z,5.08
2022-12-31T05:37:29.235Z,5.16
2022-12-31T05:40:01.105Z,5.23
2022-12-31T05:42:29.096Z,5.28
2022-12-31T05:44:57.130Z,5.32
2022-12-31T05:47:25.571Z,5.36
2022-12-31T05:49:53.633Z,5.42
2022-12-31T05:52:21.728Z,5.44
2022-12-31T05:54:49.757Z,5.49
2022-12-31T05:57:17.731Z,5.52
2022-12-31T05:59:45.709Z,5.53
2022-12-31T06:02:13.889Z,5.52
2022-12-31T06:05:10.237Z,5.56
2022-12-31T06:07:38.261Z,5.62
2022-12-31T06:10:07.124Z,5.68
2022-12-31T06:12:35.738Z,5.74
2022-12-31T06:15:04.373Z,5.81
2022-12-31T06:17:34.403Z,5.85
2022-12-31T06:20:05.997Z,5.86
2022-12-31T06:22:36.899Z,5.89
2022-12-31T06:25:05.316Z,5.89
2022-12-31T06:27:33.743Z,5.92
2022-12-31T06:30:01.736Z,5.96
2022-12-31T06:32:29.677Z,5.99
2022-12-31T06:34:57.593Z,6.00
2022-12-31T06:37:31.034Z,6.01
2022-12-31T06:40:01.131Z,6.02
2022-12-31T06:42:31.033Z,6.06
2022-12-31T06:44:59.733Z,6.12
2022-12-31T06:47:27.711Z,6.19
2022-12-31T06:49:55.933Z,6.26
2022-12-31T06:52:23.979Z,6.30
2022-12-31T06:55:17.115Z,6.32
2022-12-31T06:57:45.339Z,6.34
2022-12-31T07:00:14.619Z,6.39
2022-12-31T07:02:59.415Z,6.44
2022-12-31T07:05:36.490Z,6.50
2022-12-31T07:08:29.607Z,6.53
2022-12-31T07:11:52.928Z,6.54
2022-12-31T07:14:57.812Z,6.52
2022-12-31T07:17:50.579Z,6.60
2022-12-31T07:20:19.822Z,6.66
2022-12-31T07:22:48.314Z,6.73
2022-12-31T07:26:11.869Z,6.77
2022-12-31T07:28:57.798Z,6.82
2022-12-31T07:31:28.788Z,6.87
2022-12-31T07:34:12.472Z,6.93
2022-12-31T07:37:04.957Z,7.02
2022-12-31T07:39:41.838Z,7.10
2022-12-31T07:42:33.182Z,7.15
2022-12-31T07:45:34.945Z,7.17
2022-12-31T07:48:03.335Z,7.18
2022-12-31T07:54:49.844Z,7.33
2022-12-31T07:57:20.580Z,7.43
2022-12-31T08:00:19.217Z,7.53
2022-12-31T08:03:03.083Z,7.61
2022-12-31T08:05:50.577Z,7.64
2022-12-31T08:08:33.261Z,7.65
2022-12-31T08:11:15.874Z,7.69
2022-12-31T08:13:44.275Z,7.71
2022-12-31T08:16:14.757Z,7.73
2022-12-31T08:18:42.992Z,7.72
2022-12-31T08:21:14.403Z,7.71
2022-12-31T08:24:23.021Z,7.74
2022-12-31T08:27:34.283Z,7.77
2022-12-31T08:30:13.480Z,7.80
2022-12-31T08:33:13.028Z,7.81
2022-12-31T08:36:32.920Z,7.84
2022-12-31T08:39:42.363Z,7.93
2022-12-31T08:42:33.344Z,8.07
2022-12-31T08:45:28.735Z,8.17
2022-12-31T08:48:03.156Z,8.23
2022-12-31T08:50:31.451Z,8.31
2022-12-31T08:53:00.156Z,8.40
2022-12-31T08:55:33.475Z,8.50
2022-12-31T08:58:22.638Z,8.60
2022-12-31T09:00:56.997Z,8.67
2022-12-31T09:03:49.657Z,8.70
2022-12-31T09:06:27.266Z,8.76
2022-12-31T09:09:07.338Z,8.82
2022-12-31T09:12:04.942Z,8.84
2022-12-31T09:14:50.126Z,8.80
2022-12-31T09:17:37.129Z,8.77
2022-12-31T09:20:42.807Z,8.78
2022-12-31T09:23:13.420Z,8.85
2022-12-31T09:26:16.009Z,8.91
2022-12-31T09:29:02.830Z,8.98
2022-12-31T09:31:49.540Z,9.06
2022-12-31T09:34:30.758Z,9.18
2022-12-31T09:37:29.581Z,9.26
2022-12-31T09:40:05.439Z,9.37
2022-12-31T09:43:02.514Z,9.47
2022-12-31T09:45:40.186Z,9.57
2022-12-31T09:48:26.339Z,9.64
2022-12-31T09:51:09.597Z,9.75
2022-12-31T09:54:14.134Z,9.88
2022-12-31T09:57:15.316Z,10.03
2022-12-31T09:59:49.324Z,10.16
2022-12-31T10:02:39.402Z,10.21
2022-12-31T10:05:51.471Z,10.26
2022-12-31T10:08:33.845Z,10.31
2022-12-31T10:11:35.990Z,10.38
2022-12-31T10:14:28.309Z,10.43
2022-12-31T10:17:18.217Z,10.49
2022-12-31T10:19:46.353Z,10.60
2022-12-31T10:22:51.808Z,10.64
2022-12-31T10:28:29.846Z,10.68
2022-12-31T10:31:13.186Z,10.73
2022-12-31T10:34:05.608Z,10.83
2022-12-31T10:37:11.208Z,10.94
2022-12-31T10:39:55.209Z,11.03
2022-12-31T10:43:01.507Z,11.08
2022-12-31T10:45:29.508Z,11.15
2022-12-31T10:52:41.693Z,11.25
2022-12-31T10:55:47.513Z,11.29
2022-12-31T10:58:27.850Z,11.32
2022-12-31T11:00:58.801Z,11.33
2022-12-31T11:04:46.770Z,11.34
2022-12-31T11:07:26.398Z,11.32
2022-12-31T11:10:27.500Z,11.35
2022-12-31T11:13:29.462Z,11.38
2022-12-31T11:16:36.220Z,11.38
2022-12-31T11:19:27.085Z,11.40
2022-12-31T11:22:20.427Z,11.45
2022-12-31T11:25:11.456Z,11.50
2022-12-31T11:28:15.257Z,11.53
2022-12-31T11:31:03.670Z,11.54
2022-12-31T11:33:50.274Z,11.57
2022-12-31T11:36:33.841Z,11.62
2022-12-31T11:39:27.310Z,11.67
2022-12-31T11:42:51.927Z,11.71
2022-12-31T11:45:31.433Z,11.75
2022-12-31T11:48:31.318Z,11.79
2022-12-31T11:51:12.168Z,11.99
2022-12-31T11:53:49.021Z,12.11
2022-12-31T11:56:23.174Z,12.08
2022-12-31T11:58:54.952Z,12.11
2022-12-31T12:01:41.811Z,12.36
2022-12-31T12:04:11.353Z,12.80
2022-12-31T12:06:40.626Z,13.33
2022-12-31T12:09:27.818Z,13.96
2022-12-31T12:12:03.322Z,14.16
2022-12-31T12:14:37.170Z,14.14
2022-12-31T12:17:57.885Z,13.98
2022-12-31T12:20:38.470Z,14.09
2022-12-31T12:23:35.915Z,14.18
2022-12-31T12:26:07.243Z,14.06
2022-12-31T12:28:46.254Z,13.75
2022-12-31T12:31:22.659Z,13.45
2022-12-31T12:33:52.337Z,13.26
2022-12-31T12:36:22.127Z,13.14
2022-12-31T12:39:06.842Z,12.95
2022-12-31T12:41:34.978Z,12.78
2022-12-31T12:44:08.934Z,12.62
2022-12-31T12:46:48.487Z,12.55
2022-12-31T12:49:24.202Z,12.48
2022-12-31T12:52:38.741Z,12.43
2022-12-31T12:55:14.217Z,12.37
2022-12-31T12:58:04.048Z,12.35
2022-12-31T13:00:37.920Z,12.29
2022-12-31T13:03:27.813Z,12.24
2022-12-31T13:06:34.629Z,12.24
2022-12-31T13:09:35.626Z,12.27
2022-12-31T13:12:25.983Z,12.28
2022-12-31T13:15:18.851Z,12.28
2022-12-31T13:17:51.448Z,12.24
2022-12-31T13:20:34.707Z,12.22
2022-12-31T13:23:18.244Z,12.24
2022-12-31T13:26:01.442Z,12.30
2022-12-31T13:28:31.890Z,12.29
2022-12-31T13:31:06.959Z,12.24
2022-12-31T13:33:48.014Z,12.20
2022-12-31T13:36:23.834Z,12.17
2022-12-31T13:38:54.531Z,12.16
2022-12-31T13:41:49.719Z,12.16
2022-12-31T13:44:33.636Z,12.16
2022-12-31T13:47:27.627Z,12.13
2022-12-31T13:50:08.353Z,12.10
2022-12-31T13:52:56.026Z,12.07
2022-12-31T13:55:29.991Z,12.07
2022-12-31T13:58:16.377Z,12.09
2022-12-31T14:00:58.736Z,12.12
2022-12-31T14:04:04.079Z,12.30
2022-12-31T14:07:10.496Z,12.56
2022-12-31T14:09:38.610Z,12.53
2022-12-31T14:12:18.042Z,12.46
2022-12-31T14:15:38.651Z,12.41
2022-12-31T14:18:18.697Z,12.35
2022-12-31T14:20:58.645Z,12.32
2022-12-31T14:23:39.618Z,12.24
2022-12-31T14:26:26.086Z,12.18
2022-12-31T14:29:12.470Z,12.12
2022-12-31T14:31:49.402Z,12.10
2022-12-31T14:34:40.517Z,12.11
2022-12-31T14:41:56.024Z,12.04
2022-12-31T14:44:44.427Z,11.94
2022-12-31T14:51:50.235Z,11.80
2022-12-31T14:54:34.573Z,11.77
2022-12-31T15:03:05.818Z,11.64
2022-12-31T15:05:36.708Z,11.62
2022-12-31T15:08:26.637Z,11.61
2022-12-31T15:11:16.200Z,11.55
2022-12-31T15:14:14.633Z,11.51
2022-12-31T15:17:04.639Z,11.48
2022-12-31T15:20:03.660Z,11.50
2022-12-31T15:22:45.299Z,11.51
2022-12-31T15:25:25.791Z,11.51
2022-12-31T15:27:55.397Z,11.51
2022-12-31T15:30:32.617Z,11.51
2022-12-31T15:33:04.786Z,11.54
2022-12-31T15:35:46.417Z,11.54
2022-12-31T15:38:14.380Z,11.52
2022-12-31T15:40:45.712Z,11.50
2022-12-31T15:43:25.983Z,11.48
2022-12-31T15:45:56.068Z,11.48
2022-12-31T15:48:37.724Z,11.45
2022-12-31T15:51:09.680Z,11.40
2022-12-31T15:53:44.180Z,11.34
2022-12-31T15:56:19.876Z,11.29
2022-12-31T15:58:53.926Z,11.27
2022-12-31T16:01:36.364Z,11.26
2022-12-31T16:04:14.630Z,11.22
2022-12-31T16:06:48.905Z,11.19
2022-12-31T16:09:30.732Z,11.14
2022-12-31T16:12:00.224Z,11.11
2022-12-31T16:14:43.792Z,11.07
2022-12-31T16:17:36.339Z,11.05
2022-12-31T16:20:25.967Z,11.03
2022-12-31T16:22:57.617Z,10.98
2022-12-31T16:25:31.108Z,10.95
2022-12-31T16:28:02.143Z,10.88
2022-12-31T16:30:36.070Z,10.85
2022-12-31T16:33:07.083Z,10.84
2022-12-31T16:35:37.339Z,10.83
2022-12-31T16:38:08.301Z,10.82
2022-12-31T16:40:36.293Z,10.79
2022-12-31T16:43:04.515Z,10.73
2022-12-31T16:45:36.706Z,10.68
2022-12-31T16:48:19.125Z,10.63
2022-12-31T16:50:53.836Z,10.61
2022-12-31T16:53:27.236Z,10.56
2022-12-31T16:56:04.910Z,10.56
2022-12-31T16:58:36.033Z,10.53
2022-12-31T17:01:18.436Z,10.52
2022-12-31T17:03:51.489Z,10.50
2022-12-31T17:06:21.648Z,10.50
2022-12-31T17:08:55.826Z,10.49
2022-12-31T17:11:39.386Z,10.49
2022-12-31T17:14:07.813Z,10.50
2022-12-31T17:16:37.964Z,10.50
2022-12-31T17:19:06.395Z,10.48
2022-12-31T17:21:34.455Z,10.48
2022-12-31T17:24:07.009Z,10.48
2022-12-31T17:26:37.962Z,10.49
2022-12-31T17:29:08.042Z,10.50
2022-12-31T17:31:38.455Z,10.48
2022-12-31T17:34:12.440Z,10.47
2022-12-31T17:36:52.214Z,10.45
2022-12-31T17:39:23.127Z,10.44
2022-12-31T17:41:53.177Z,10.43
2022-12-31T17:44:23.782Z,10.44
2022-12-31T17:46:52.981Z,10.45
2022-12-31T17:49:30.512Z,10.55
2022-12-31T17:51:58.783Z,10.67
2022-12-31T17:54:26.717Z,10.80
2022-12-31T17:56:54.796Z,10.91
2022-12-31T17:59:25.820Z,10.99
2022-12-31T18:02:02.744Z,11.04
2022-12-31T18:04:30.826Z,11.05
2022-12-31T18:06:58.783Z,11.07
2022-12-31T18:09:26.830Z,11.13
2022-12-31T18:11:58.289Z,11.16
2022-12-31T18:14:29.650Z,11.11
2022-12-31T18:16:58.518Z,11.00
2022-12-31T18:22:16.658Z,10.68
2022-12-31T18:24:44.845Z,10.55
2022-12-31T18:27:17.616Z,10.44
2022-12-31T18:29:46.193Z,10.38
2022-12-31T18:32:26.255Z,10.36
2022-12-31T18:34:54.684Z,10.33
2022-12-31T18:37:22.919Z,10.25
2022-12-31T18:39:51.031Z,10.17
2022-12-31T18:42:20.456Z,10.05
2022-12-31T18:44:48.586Z,9.95
2022-12-31T18:47:19.525Z,9.85
2022-12-31T18:49:48.736Z,9.78
2022-12-31T18:52:21.781Z,9.67
2022-12-31T18:54:50.395Z,9.56
2022-12-31T18:57:18.612Z,9.47
2022-12-31T18:59:46.704Z,9.44
2022-12-31T19:02:18.796Z,9.37
2022-12-31T19:04:48.305Z,9.31
2022-12-31T19:07:16.405Z,9.20
2022-12-31T19:09:45.967Z,9.05
2022-12-31T19:12:16.626Z,8.96
2022-12-31T19:14:45.735Z,8.97
2022-12-31T19:17:13.675Z,8.93
2022-12-31T19:19:41.703Z,8.89
2022-12-31T19:22:15.195Z,8.77
2022-12-31T19:24:43.257Z,8.68
2022-12-31T19:27:14.901Z,8.63
2022-12-31T19:29:42.932Z,8.60
2022-12-31T19:36:20.286Z,8.36
2022-12-31T19:38:48.275Z,8.41
2022-12-31T19:41:19.392Z,8.51
2022-12-31T19:43:48.087Z,8.50
2022-12-31T19:46:18.846Z,8.45
2022-12-31T19:48:47.173Z,8.49
2022-12-31T19:51:20.454Z,8.60
2022-12-31T19:53:49.767Z,8.68
2022-12-31T19:56:20.082Z,8.73
2022-12-31T19:58:48.460Z,8.70
2022-12-31T20:01:22.323Z,8.73
2022-12-31T20:03:51.486Z,8.84
2022-12-31T20:06:19.779Z,8.94
2022-12-31T20:08:47.802Z,9.03
2022-12-31T20:11:18.844Z,9.06
2022-12-31T20:13:48.482Z,9.08
2022-12-31T20:16:18.450Z,9.11
2022-12-31T20:18:47.556Z,9.11
2022-12-31T20:21:21.698Z,9.11
2022-12-31T20:23:51.251Z,9.13
2022-12-31T20:26:21.317Z,9.12
2022-12-31T20:28:49.394Z,9.07
2022-12-31T20:31:20.323Z,9.03
2022-12-31T20:33:48.606Z,9.00
2022-12-31T20:36:17.740Z,9.00
2022-12-31T20:38:46.343Z,8.99
2022-12-31T20:41:20.407Z,9.01
2022-12-31T20:43:49.463Z,9.07
2022-12-31T20:46:24.517Z,9.09
2022-12-31T20:48:55.060Z,9.07
2022-12-31T20:51:24.278Z,9.06
2022-12-31T20:53:58.023Z,9.06
2022-12-31T20:56:29.218Z,9.00
2022-12-31T20:58:57.593Z,8.92
2022-12-31T21:01:32.206Z,8.81
2022-12-31T21:04:14.512Z,8.70
2022-12-31T21:06:42.511Z,8.54
2022-12-31T21:09:10.797Z,8.40
2022-12-31T21:11:57.347Z,8.31
2022-12-31T21:14:25.421Z,8.23
2022-12-31T21:16:53.559Z,8.21
2022-12-31T21:19:21.610Z,8.23
2022-12-31T21:21:49.949Z,8.20
2022-12-31T21:24:23.617Z,8.05
2022-12-31T21:26:55.044Z,7.81
2022-12-31T21:29:23.262Z,7.63
2022-12-31T21:31:52.250Z,7.59
2022-12-31T21:34:20.267Z,7.60
2022-12-31T21:36:48.388Z,7.60
2022-12-31T21:39:16.418Z,7.58
2022-12-31T21:41:53.498Z,7.50
2022-12-31T21:44:26.001Z,7.38
2022-12-31T21:47:39.516Z,7.33
2022-12-31T21:50:08.189Z,7.36
2022-12-31T21:52:36.335Z,7.26
2022-12-31T21:55:23.924Z,7.13
2022-12-31T21:58:24.812Z,7.11
2022-12-31T22:00:59.592Z,7.06
2022-12-31T22:03:28.632Z,7.11
2022-12-31T22:06:13.155Z,7.12
2022-12-31T22:08:43.903Z,7.05
2022-12-31T22:11:13.139Z,7.05
2022-12-31T22:13:42.879Z,7.09
2022-12-31T22:16:11.357Z,7.10
2022-12-31T22:18:40.968Z,7.11
2022-12-31T22:21:19.034Z,7.09
2022-12-31T22:23:49.876Z,7.12
2022-12-31T22:26:20.269Z,7.17
2022-12-31T22:28:48.562Z,7.20
2022-12-31T22:31:22.851Z,7.18
2022-12-31T22:33:51.555Z,7.13
2022-12-31T22:36:22.264Z,7.07
2022-12-31T22:38:52.457Z,7.04
2022-12-31T22:41:22.521Z,7.09
2022-12-31T22:44:02.236Z,7.28
2022-12-31T22:46:31.856Z,7.89
2022-12-31T22:49:02.543Z,7.94
2022-12-31T22:51:56.516Z,7.74
2022-12-31T22:54:20.308Z,7.71
2022-12-31T22:56:48.369Z,7.77
2022-12-31T22:59:16.421Z,7.82
2022-12-31T23:01:44.552Z,7.84
2022-12-31T23:04:12.845Z,7.84
2022-12-31T23:06:43.719Z,7.81
2022-12-31T23:09:33.338Z,7.81
2022-12-31T23:12:26.940Z,7.85
2022-12-31T23:15:13.255Z,7.75
2022-12-31T23:17:59.844Z,7.68
2022-12-31T23:20:46.523Z,7.63
2022-12-31T23:23:19.144Z,7.59
2022-12-31T23:25:52.000Z,7.57
2022-12-31T23:28:23.075Z,7.55
2022-12-31T23:30:51.981Z,7.56
2022-12-31T23:33:22.975Z,7.58
2022-12-31T23:35:51.221Z,7.59
2022-12-31T23:38:19.255Z,7.52
2022-12-31T23:40:47.320Z,7.48
2022-12-31T23:43:21.274Z,7.37
2022-12-31T23:45:52.530Z,7.26
2022-12-31T23:48:20.720Z,7.18
2022-12-31T23:50:53.502Z,7.11
2022-12-31T23:53:25.507Z,7.15
2022-12-31T23:55:53.817Z,7.02
2022-12-31T23:58:22.341Z,6.99
